Decoded Metar for VOCI (COCHIN INTL in INDIA) (IATA:N/A) | Meteo·Mobile Aviation Weather
aviador You're here:

VOCI Decoded Metar

COCHIN INTL in INDIA
Report Time2018-10-23 11:00:00
UTC Time2018-10-23 11:20:25
Flight Rules mvfr MVFR
Wind250° at 04 kt
W.Decomp.*RWY 27: 3.8 kt HW 1.2 kt LCW
W.Rank250° ranks 7
Current wind is below 250° avg. (6.2)
Visibility6000 m
Phenomena:N/A
Clouds:Scattered 015 Hf
Expected CloudBase > 2,800 ft AGL from Temp-Dew spread
CeilingNone
Temp31°C (ISA +16)
Dew Point24°C (66% RH)
Heat Index36.4°C
QNH1009 hPa
Density Alt2,388 ft
Elevation26 ft
Report Wrong Elevation
Raw Report
METAR VOCI 231100Z 25004KT 6000 SCT015 31/24 Q1009 BECMG 5000 HZ=

Extra information for VOCI:More info

Metar Taf Metar & Taf Last 4 Metars F.Rules Stats Wind Profile Meteogram Temp Stats Airport Information Weather charts Add Link Nearby VenuesMetar ALERT Operation Metar Decoded Social comments